createdAt,value
2017-09-11T00:00:49.993Z,86
2017-09-11T00:01:50.711Z,86
2017-09-11T00:02:51.450Z,86
2017-09-11T00:03:52.193Z,86
2017-09-11T00:04:52.910Z,85
2017-09-11T00:05:53.625Z,85
2017-09-11T00:06:54.347Z,85
2017-09-11T00:07:55.064Z,85
2017-09-11T00:08:55.785Z,86
2017-09-11T00:09:56.498Z,85
2017-09-11T00:10:57.234Z,85
2017-09-11T00:11:57.957Z,85
2017-09-11T00:12:58.674Z,86
2017-09-11T00:13:59.391Z,85
2017-09-11T00:15:00.133Z,86
2017-09-11T00:16:00.851Z,85
2017-09-11T00:17:01.591Z,86
2017-09-11T00:18:02.318Z,86
2017-09-11T00:19:03.029Z,85
2017-09-11T00:20:03.748Z,85
2017-09-11T00:21:04.465Z,85
2017-09-11T00:22:05.207Z,85
2017-09-11T00:23:05.948Z,85
2017-09-11T00:24:06.663Z,85
2017-09-11T00:25:07.383Z,85
2017-09-11T00:26:08.100Z,85
2017-09-11T00:27:08.816Z,85
2017-09-11T00:28:09.537Z,85
2017-09-11T00:29:10.255Z,85
2017-09-11T00:30:10.979Z,85
2017-09-11T00:31:11.690Z,85
2017-09-11T00:32:12.436Z,85
2017-09-11T00:33:13.174Z,85
2017-09-11T00:34:13.917Z,85
2017-09-11T00:35:14.628Z,85
2017-09-11T00:36:15.369Z,85
2017-09-11T00:37:16.107Z,86
2017-09-11T00:38:16.823Z,85
2017-09-11T00:39:17.542Z,86
2017-09-11T00:40:18.261Z,86
2017-09-11T00:41:19.003Z,86
2017-09-11T00:42:19.745Z,86
2017-09-11T00:43:20.479Z,86
2017-09-11T00:44:21.196Z,87
2017-09-11T00:45:21.936Z,87
2017-09-11T00:46:22.654Z,87
2017-09-11T00:47:23.394Z,86
2017-09-11T00:48:24.136Z,86
2017-09-11T00:49:24.855Z,86
2017-09-11T00:50:25.597Z,87
2017-09-11T00:51:26.312Z,86
2017-09-11T00:52:27.029Z,86
2017-09-11T00:53:27.748Z,86
2017-09-11T00:54:28.465Z,86
2017-09-11T00:55:29.184Z,86
2017-09-11T00:56:29.901Z,86
2017-09-11T00:57:30.621Z,86
2017-09-11T00:58:31.358Z,86
2017-09-11T00:59:32.077Z,86
2017-09-11T01:00:32.793Z,86
2017-09-11T01:01:33.510Z,86
2017-09-11T01:02:34.232Z,86
2017-09-11T01:03:34.948Z,87
2017-09-11T01:04:35.662Z,87
2017-09-11T01:05:36.382Z,87
2017-09-11T01:06:37.099Z,87
2017-09-11T01:07:37.817Z,87
2017-09-11T01:08:38.535Z,87
2017-09-11T01:09:39.254Z,87
2017-09-11T01:10:39.973Z,87
2017-09-11T01:11:40.691Z,87
2017-09-11T01:12:41.431Z,87
2017-09-11T01:13:42.151Z,87
2017-09-11T01:14:42.891Z,87
2017-09-11T01:15:43.612Z,87
2017-09-11T01:16:44.355Z,87
2017-09-11T01:17:45.074Z,87
2017-09-11T01:18:45.790Z,86
2017-09-11T01:19:46.528Z,87
2017-09-11T01:20:47.246Z,86
2017-09-11T01:21:47.967Z,87
2017-09-11T01:22:48.707Z,87
2017-09-11T01:23:49.426Z,86
2017-09-11T01:24:50.143Z,87
2017-09-11T01:25:50.882Z,87
2017-09-11T01:26:51.601Z,87
2017-09-11T01:27:52.343Z,87
2017-09-11T01:28:53.061Z,87
2017-09-11T01:29:53.781Z,87
2017-09-11T01:30:54.500Z,87
2017-09-11T01:31:55.240Z,87
2017-09-11T01:32:55.982Z,87
2017-09-11T01:33:56.699Z,87
2017-09-11T01:34:57.417Z,88
2017-09-11T01:35:58.136Z,88
2017-09-11T01:36:58.850Z,88
2017-09-11T01:37:59.570Z,88
2017-09-11T01:39:00.299Z,89
2017-09-11T01:40:01.007Z,89
2017-09-11T01:41:01.747Z,89
2017-09-11T01:42:02.490Z,89
2017-09-11T01:43:03.207Z,90
2017-09-11T01:44:03.926Z,90
2017-09-11T01:45:04.643Z,90
2017-09-11T01:46:05.362Z,90
2017-09-11T01:47:06.083Z,90
2017-09-11T01:48:06.821Z,90
2017-09-11T01:49:07.563Z,91
2017-09-11T01:50:08.288Z,91
2017-09-11T01:51:09.022Z,92
2017-09-11T01:52:09.739Z,93
2017-09-11T01:53:10.457Z,93
2017-09-11T01:54:11.176Z,94
2017-09-11T01:55:11.893Z,95
2017-09-11T01:56:12.635Z,94
2017-09-11T01:57:13.355Z,95
2017-09-11T01:58:14.093Z,95
2017-09-11T01:59:14.812Z,96
2017-09-11T02:00:15.534Z,96
2017-09-11T02:01:16.272Z,96
2017-09-11T02:02:16.990Z,96
2017-09-11T02:03:17.728Z,97
2017-09-11T02:04:18.453Z,98
2017-09-11T02:05:19.166Z,98
2017-09-11T02:06:19.883Z,97
2017-09-11T02:07:20.602Z,98
2017-09-11T02:08:21.318Z,98
2017-09-11T02:09:22.035Z,98
2017-09-11T02:10:22.752Z,98
2017-09-11T02:11:23.493Z,99
2017-09-11T02:12:24.211Z,98
2017-09-11T02:13:24.928Z,99
2017-09-11T02:14:25.649Z,100
2017-09-11T02:15:26.365Z,100
2017-09-11T02:16:27.081Z,99
2017-09-11T02:17:27.802Z,100
2017-09-11T02:18:28.519Z,100
2017-09-11T02:19:29.260Z,100
2017-09-11T02:20:29.980Z,100
2017-09-11T02:21:30.695Z,100
2017-09-11T02:22:31.438Z,100
2017-09-11T02:23:32.155Z,100
2017-09-11T02:24:32.872Z,100
2017-09-11T02:25:33.594Z,100
2017-09-11T02:26:34.314Z,100
2017-09-11T02:27:35.037Z,100
2017-09-11T02:28:35.773Z,100
2017-09-11T02:29:36.498Z,100
2017-09-11T02:30:37.212Z,100
2017-09-11T02:31:37.933Z,100
2017-09-11T02:32:38.658Z,100
2017-09-11T02:33:39.396Z,100
2017-09-11T02:34:40.138Z,100
2017-09-11T02:35:40.867Z,100
2017-09-11T02:36:41.604Z,100
2017-09-11T02:37:42.323Z,100
2017-09-11T02:38:43.041Z,100
2017-09-11T02:39:43.782Z,100
2017-09-11T02:40:44.506Z,100
2017-09-11T02:41:45.242Z,100
2017-09-11T02:42:45.960Z,100
2017-09-11T02:43:46.685Z,100
2017-09-11T02:44:47.425Z,100
2017-09-11T02:45:48.167Z,100
2017-09-11T02:46:48.887Z,100
2017-09-11T02:47:49.606Z,100
2017-09-11T02:48:50.322Z,100
2017-09-11T02:49:51.042Z,100
2017-09-11T02:50:51.762Z,100
2017-09-11T02:51:52.503Z,100
2017-09-11T02:52:53.223Z,100
2017-09-11T02:53:53.939Z,100
2017-09-11T02:54:54.680Z,100
2017-09-11T02:55:55.424Z,100
2017-09-11T02:56:56.164Z,100
2017-09-11T02:57:56.883Z,100
2017-09-11T02:58:57.603Z,100
2017-09-11T02:59:58.324Z,100
2017-09-11T03:00:59.042Z,100
2017-09-11T03:01:59.762Z,100
2017-09-11T03:03:00.480Z,100
2017-09-11T03:04:01.199Z,100
2017-09-11T03:05:01.916Z,100
2017-09-11T03:06:02.634Z,100
2017-09-11T03:07:03.353Z,100
2017-09-11T03:08:04.073Z,100
2017-09-11T03:09:04.792Z,100
2017-09-11T03:10:05.515Z,100
2017-09-11T03:11:06.230Z,100
2017-09-11T03:12:06.955Z,100
2017-09-11T03:13:07.673Z,100
2017-09-11T03:14:08.391Z,100
2017-09-11T03:15:09.112Z,100
2017-09-11T03:16:09.827Z,100
2017-09-11T03:17:10.546Z,100
2017-09-11T03:18:11.266Z,100
2017-09-11T03:19:11.987Z,100
2017-09-11T03:20:12.731Z,100
2017-09-11T03:21:13.451Z,100
2017-09-11T03:22:14.194Z,100
2017-09-11T03:23:14.912Z,100
2017-09-11T03:24:15.632Z,100
2017-09-11T03:25:16.377Z,100
2017-09-11T03:26:17.117Z,100
2017-09-11T03:27:17.855Z,100
2017-09-11T03:28:18.574Z,100
2017-09-11T03:29:19.293Z,100
2017-09-11T03:30:20.011Z,100
2017-09-11T03:31:20.754Z,100
2017-09-11T03:32:21.496Z,100
2017-09-11T03:33:22.233Z,100
2017-09-11T03:34:22.950Z,100
2017-09-11T03:35:23.668Z,100
2017-09-11T03:36:24.410Z,100
2017-09-11T03:37:25.131Z,100
2017-09-11T03:38:25.851Z,100
2017-09-11T03:39:26.569Z,100
2017-09-11T03:40:27.289Z,100
2017-09-11T03:41:28.005Z,100
2017-09-11T03:42:28.723Z,100
2017-09-11T03:43:29.467Z,100
2017-09-11T03:44:30.183Z,100
2017-09-11T03:45:30.904Z,100
2017-09-11T03:46:31.620Z,100
2017-09-11T03:47:32.338Z,100
2017-09-11T03:48:33.082Z,100
2017-09-11T03:49:33.800Z,100
2017-09-11T03:50:34.518Z,100
2017-09-11T03:51:35.259Z,100
2017-09-11T03:52:35.977Z,100
2017-09-11T03:53:36.699Z,100
2017-09-11T03:54:37.416Z,100
2017-09-11T03:55:38.135Z,100
2017-09-11T03:56:38.855Z,100
2017-09-11T03:57:39.596Z,100
2017-09-11T03:58:40.314Z,100
2017-09-11T03:59:41.034Z,100
2017-09-11T04:00:41.773Z,100
2017-09-11T04:01:42.493Z,100
2017-09-11T04:02:43.211Z,100
2017-09-11T04:03:43.930Z,100
2017-09-11T04:04:44.648Z,100
2017-09-11T04:05:45.366Z,100
2017-09-11T04:06:46.086Z,100
2017-09-11T04:07:46.809Z,100
2017-09-11T04:08:47.525Z,100
2017-09-11T04:09:48.246Z,100
2017-09-11T04:10:48.987Z,100
2017-09-11T04:11:49.705Z,100
2017-09-11T04:12:50.446Z,100
2017-09-11T04:13:51.166Z,100
2017-09-11T04:14:51.907Z,100
2017-09-11T04:15:52.650Z,100
2017-09-11T04:16:53.371Z,100
2017-09-11T04:17:54.089Z,100
2017-09-11T04:18:54.839Z,100
2017-09-11T04:19:55.576Z,100
2017-09-11T04:20:56.293Z,100
2017-09-11T04:21:57.017Z,100
2017-09-11T04:22:57.756Z,100
2017-09-11T04:23:58.473Z,100
2017-09-11T04:24:59.194Z,100
2017-09-11T04:25:59.910Z,100
2017-09-11T04:27:00.652Z,100
2017-09-11T04:28:01.370Z,100
2017-09-11T04:29:02.091Z,100
2017-09-11T04:30:02.812Z,100
2017-09-11T04:31:03.528Z,100
2017-09-11T04:32:04.248Z,100
2017-09-11T04:33:04.990Z,100
2017-09-11T04:34:05.706Z,100
2017-09-11T04:35:06.425Z,100
2017-09-11T04:36:07.167Z,100
2017-09-11T04:37:07.913Z,100
2017-09-11T04:38:08.628Z,100
2017-09-11T04:39:09.346Z,100
2017-09-11T04:40:10.062Z,100
2017-09-11T04:41:10.804Z,100
2017-09-11T04:42:11.522Z,100
2017-09-11T04:43:12.267Z,100
2017-09-11T04:44:12.985Z,100
2017-09-11T04:45:13.705Z,100
2017-09-11T04:46:14.425Z,100
2017-09-11T04:47:15.145Z,100
2017-09-11T04:48:15.866Z,100
2017-09-11T04:49:16.611Z,100
2017-09-11T04:50:17.334Z,100
2017-09-11T04:51:18.052Z,100
2017-09-11T04:52:18.775Z,100
2017-09-11T04:53:19.494Z,100
2017-09-11T04:54:20.213Z,100
2017-09-11T04:55:20.935Z,100
2017-09-11T04:56:21.678Z,100
2017-09-11T04:57:22.420Z,100
2017-09-11T04:58:23.163Z,100
2017-09-11T04:59:23.885Z,100
2017-09-11T05:00:24.602Z,100
2017-09-11T05:01:25.324Z,100
2017-09-11T05:02:26.044Z,100
2017-09-11T05:03:26.764Z,100
2017-09-11T05:04:27.488Z,100
2017-09-11T05:05:28.229Z,100
2017-09-11T05:06:28.956Z,100
2017-09-11T05:07:29.699Z,100
2017-09-11T05:08:30.422Z,100
2017-09-11T05:09:31.142Z,100
2017-09-11T05:10:31.887Z,100
2017-09-11T05:11:32.632Z,100
2017-09-11T05:12:33.352Z,100
2017-09-11T05:13:34.074Z,100
2017-09-11T05:14:34.798Z,100
2017-09-11T05:15:35.519Z,100
2017-09-11T05:16:36.241Z,100
2017-09-11T05:17:36.983Z,100
2017-09-11T05:18:37.708Z,100
2017-09-11T05:19:38.431Z,100
2017-09-11T05:20:39.177Z,100
2017-09-11T05:21:39.900Z,100
2017-09-11T05:22:40.622Z,100
2017-09-11T05:23:41.344Z,100
2017-09-11T05:24:42.068Z,100
2017-09-11T05:25:42.800Z,100
2017-09-11T05:26:43.515Z,100
2017-09-11T05:27:44.237Z,100
2017-09-11T05:28:44.983Z,100
2017-09-11T05:29:45.709Z,100
2017-09-11T05:30:46.432Z,100
2017-09-11T05:31:47.156Z,100
2017-09-11T05:32:47.875Z,100
2017-09-11T05:33:48.600Z,100
2017-09-11T05:34:49.344Z,100
2017-09-11T05:35:50.066Z,100
2017-09-11T05:36:50.791Z,100
2017-09-11T05:37:51.514Z,100
2017-09-11T05:38:52.235Z,100
2017-09-11T05:39:52.982Z,100
2017-09-11T05:40:53.704Z,100
2017-09-11T05:41:54.430Z,100
2017-09-11T05:42:55.153Z,100
2017-09-11T05:43:55.875Z,100
2017-09-11T05:44:56.599Z,100
2017-09-11T05:45:57.323Z,100
2017-09-11T05:46:58.045Z,100
2017-09-11T05:47:58.767Z,100
2017-09-11T05:48:59.493Z,100
2017-09-11T05:50:00.237Z,100
2017-09-11T05:51:00.984Z,100
2017-09-11T05:52:01.708Z,100
2017-09-11T05:53:02.452Z,100
2017-09-11T05:54:03.179Z,100
2017-09-11T05:55:03.905Z,100
2017-09-11T05:56:04.629Z,100
2017-09-11T05:57:05.355Z,100
2017-09-11T05:58:06.079Z,100
2017-09-11T05:59:06.801Z,100
2017-09-11T06:00:07.525Z,100
2017-09-11T06:01:08.250Z,100
2017-09-11T06:02:08.972Z,100
2017-09-11T06:03:09.696Z,100
2017-09-11T06:04:10.421Z,100
2017-09-11T06:05:11.146Z,100
2017-09-11T06:06:11.892Z,100
2017-09-11T06:07:12.617Z,100
2017-09-11T06:08:13.367Z,100
2017-09-11T06:09:14.091Z,100
2017-09-11T06:10:14.811Z,100
2017-09-11T06:11:15.538Z,100
2017-09-11T06:12:16.282Z,100
2017-09-11T06:13:17.013Z,100
2017-09-11T06:14:17.733Z,100
2017-09-11T06:15:18.458Z,100
2017-09-11T06:16:19.178Z,100
2017-09-11T06:17:19.903Z,100
2017-09-11T06:18:20.628Z,100
2017-09-11T06:19:21.354Z,100
2017-09-11T06:20:22.078Z,100
2017-09-11T06:21:22.799Z,100
2017-09-11T06:22:23.520Z,100
2017-09-11T06:23:24.244Z,100
2017-09-11T06:24:24.966Z,100
2017-09-11T06:25:25.710Z,100
2017-09-11T06:26:26.434Z,100
2017-09-11T06:27:27.159Z,100
2017-09-11T06:28:27.879Z,100
2017-09-11T06:29:28.606Z,100
2017-09-11T06:30:29.330Z,100
2017-09-11T06:31:30.052Z,100
2017-09-11T06:32:30.775Z,100
2017-09-11T06:33:31.499Z,100
2017-09-11T06:34:32.225Z,100
2017-09-11T06:35:32.950Z,100
2017-09-11T06:36:33.672Z,100
2017-09-11T06:37:34.394Z,100
2017-09-11T06:38:35.119Z,100
2017-09-11T06:39:35.844Z,100
2017-09-11T06:40:36.569Z,100
2017-09-11T06:41:37.294Z,100
2017-09-11T06:42:38.013Z,100
2017-09-11T06:43:38.737Z,100
2017-09-11T06:44:39.457Z,100
2017-09-11T06:45:40.182Z,100
2017-09-11T06:46:40.904Z,100
2017-09-11T06:47:41.627Z,100
2017-09-11T06:48:42.371Z,100
2017-09-11T06:49:43.092Z,100
2017-09-11T06:50:43.815Z,100
2017-09-11T06:51:44.538Z,100
2017-09-11T06:52:45.263Z,100
2017-09-11T06:53:46.008Z,100
2017-09-11T06:54:46.734Z,100
2017-09-11T06:55:47.456Z,100
2017-09-11T06:56:48.180Z,100
2017-09-11T06:57:48.903Z,100
2017-09-11T06:58:49.628Z,100
2017-09-11T06:59:50.352Z,100
2017-09-11T07:00:51.076Z,100
2017-09-11T07:01:51.804Z,100
2017-09-11T07:02:52.527Z,100
2017-09-11T07:03:53.274Z,100
2017-09-11T07:04:54.004Z,100
2017-09-11T07:05:54.729Z,100
2017-09-11T07:06:55.452Z,100
2017-09-11T07:07:56.201Z,100
2017-09-11T07:08:56.927Z,100
2017-09-11T07:09:57.649Z,100
2017-09-11T07:10:58.374Z,100
2017-09-11T07:11:59.100Z,100
2017-09-11T07:12:59.839Z,100
2017-09-11T07:14:00.552Z,100
2017-09-11T07:15:01.278Z,100
2017-09-11T07:16:02.004Z,100
2017-09-11T07:17:02.732Z,100
2017-09-11T07:18:03.459Z,100
2017-09-11T07:19:04.186Z,100
2017-09-11T07:20:04.914Z,100
2017-09-11T07:21:05.641Z,100
2017-09-11T07:22:06.368Z,100
2017-09-11T07:23:07.091Z,100
2017-09-11T07:24:07.820Z,100
2017-09-11T07:25:08.548Z,100
2017-09-11T07:26:09.271Z,100
2017-09-11T07:27:09.999Z,100
2017-09-11T07:28:10.727Z,100
2017-09-11T07:29:11.455Z,100
2017-09-11T07:30:12.183Z,100
2017-09-11T07:31:12.933Z,100
2017-09-11T07:32:13.662Z,100
2017-09-11T07:33:14.413Z,100
2017-09-11T07:34:15.138Z,100
2017-09-11T07:35:15.866Z,100
2017-09-11T07:36:16.592Z,100
2017-09-11T07:37:17.322Z,100
2017-09-11T07:38:18.049Z,100
2017-09-11T07:39:18.779Z,100
2017-09-11T07:40:19.528Z,100
2017-09-11T07:41:20.259Z,100
2017-09-11T07:42:20.991Z,100
2017-09-11T07:43:21.741Z,100
2017-09-11T07:44:22.467Z,100
2017-09-11T07:45:23.194Z,100
2017-09-11T07:46:23.925Z,100
2017-09-11T07:47:24.673Z,100
2017-09-11T07:48:25.400Z,100
2017-09-11T07:49:26.131Z,100
2017-09-11T07:50:26.859Z,100
2017-09-11T07:51:27.584Z,100
2017-09-11T07:52:28.333Z,100
2017-09-11T07:53:29.059Z,100
2017-09-11T07:54:29.788Z,100
2017-09-11T07:55:30.519Z,100
2017-09-11T07:56:31.247Z,100
2017-09-11T07:57:31.974Z,100
2017-09-11T07:58:32.704Z,100
2017-09-11T07:59:33.427Z,100
2017-09-11T08:00:34.154Z,100
2017-09-11T08:01:34.883Z,100
2017-09-11T08:02:35.631Z,100
2017-09-11T08:03:36.357Z,100
2017-09-11T08:04:37.088Z,100
2017-09-11T08:05:37.813Z,100
2017-09-11T08:06:38.542Z,100
2017-09-11T08:07:39.269Z,100
2017-09-11T08:08:40.003Z,100
2017-09-11T08:09:40.727Z,100
2017-09-11T08:10:41.455Z,100
2017-09-11T08:11:42.188Z,100
2017-09-11T08:12:42.917Z,100
2017-09-11T08:13:43.648Z,100
2017-09-11T08:14:44.378Z,99
2017-09-11T08:15:45.105Z,100
2017-09-11T08:16:45.837Z,100
2017-09-11T08:17:46.568Z,100
2017-09-11T08:18:47.321Z,100
2017-09-11T08:19:48.048Z,100
2017-09-11T08:20:48.778Z,100
2017-09-11T08:21:49.508Z,100
2017-09-11T08:22:50.260Z,100
2017-09-11T08:23:50.989Z,100
2017-09-11T08:24:51.742Z,100
2017-09-11T08:25:52.474Z,100
2017-09-11T08:26:53.205Z,100
2017-09-11T08:27:53.956Z,100
2017-09-11T08:28:54.698Z,99
2017-09-11T08:29:55.427Z,98
2017-09-11T08:30:56.158Z,97
2017-09-11T08:31:56.909Z,93
2017-09-11T08:32:57.642Z,93
2017-09-11T08:33:58.397Z,92
2017-09-11T08:34:59.127Z,92
2017-09-11T08:35:59.859Z,93
2017-09-11T08:37:00.591Z,93
2017-09-11T08:38:01.341Z,94
2017-09-11T08:39:02.092Z,95
2017-09-11T08:40:02.845Z,95
2017-09-11T08:41:03.575Z,94
2017-09-11T08:42:04.302Z,94
2017-09-11T08:43:05.033Z,95
2017-09-11T08:44:05.764Z,92
2017-09-11T08:45:06.494Z,91
2017-09-11T08:46:07.223Z,91
2017-09-11T08:47:07.958Z,91
2017-09-11T08:48:08.712Z,90
2017-09-11T08:49:09.443Z,89
2017-09-11T08:50:10.173Z,90
2017-09-11T08:51:10.904Z,90
2017-09-11T08:52:11.637Z,87
2017-09-11T08:53:12.368Z,86
2017-09-11T08:54:13.099Z,86
2017-09-11T08:55:13.830Z,86
2017-09-11T08:56:14.586Z,87
2017-09-11T08:57:15.344Z,84
2017-09-11T08:58:16.081Z,81
2017-09-11T08:59:16.839Z,77
2017-09-11T09:00:17.575Z,75
2017-09-11T09:01:18.334Z,72
2017-09-11T09:02:19.069Z,73
2017-09-11T09:03:19.825Z,73
2017-09-11T09:04:20.586Z,72
2017-09-11T09:05:21.344Z,73
2017-09-11T09:06:22.078Z,73
2017-09-11T09:07:22.835Z,75
2017-09-11T09:08:23.569Z,76
2017-09-11T09:09:24.321Z,78
2017-09-11T09:10:25.055Z,79
2017-09-11T09:11:25.788Z,81
2017-09-11T09:12:26.525Z,82
2017-09-11T09:13:27.244Z,82
2017-09-11T09:14:27.973Z,82
2017-09-11T09:15:28.702Z,82
2017-09-11T09:16:29.432Z,83
2017-09-11T09:17:30.166Z,82
2017-09-11T09:18:30.898Z,81
2017-09-11T09:19:31.656Z,78
2017-09-11T09:20:32.400Z,79
2017-09-11T09:21:33.119Z,79
2017-09-11T09:22:33.850Z,79
2017-09-11T09:23:34.590Z,78
2017-09-11T09:24:35.319Z,79
2017-09-11T09:25:36.074Z,79
2017-09-11T09:26:36.805Z,79
2017-09-11T09:27:37.535Z,78
2017-09-11T09:28:38.267Z,78
2017-09-11T09:29:38.999Z,78
2017-09-11T09:30:39.733Z,77
2017-09-11T09:31:40.463Z,77
2017-09-11T09:32:41.218Z,75
2017-09-11T09:33:41.951Z,75
2017-09-11T09:34:42.684Z,74
2017-09-11T09:35:43.422Z,74
2017-09-11T09:36:44.183Z,70
2017-09-11T09:37:44.918Z,67
2017-09-11T09:38:45.679Z,67
2017-09-11T09:39:46.417Z,66
2017-09-11T09:40:47.164Z,67
2017-09-11T09:41:47.898Z,66
2017-09-11T09:42:48.637Z,66
2017-09-11T09:43:49.401Z,65
2017-09-11T09:44:50.140Z,64
2017-09-11T09:45:50.883Z,62
2017-09-11T09:46:51.627Z,62
2017-09-11T09:47:52.390Z,64
2017-09-11T09:48:53.133Z,66
2017-09-11T09:49:53.877Z,66
2017-09-11T09:50:54.643Z,67
2017-09-11T09:51:55.408Z,66
2017-09-11T09:52:56.149Z,67
2017-09-11T09:53:56.889Z,68
2017-09-11T09:54:57.630Z,71
2017-09-11T09:55:58.368Z,72
2017-09-11T09:56:59.106Z,73
2017-09-11T09:57:59.843Z,73
2017-09-11T09:59:00.579Z,73
2017-09-11T10:00:01.317Z,72
2017-09-11T10:01:02.057Z,71
2017-09-11T10:02:02.792Z,69
2017-09-11T10:03:03.533Z,68
2017-09-11T10:04:04.274Z,67
2017-09-11T10:05:05.016Z,67
2017-09-11T10:06:05.757Z,68
2017-09-11T10:07:06.518Z,68
2017-09-11T10:08:07.256Z,68
2017-09-11T10:09:07.993Z,69
2017-09-11T10:10:08.728Z,70
2017-09-11T10:11:09.484Z,70
2017-09-11T10:12:10.218Z,70
2017-09-11T10:13:10.972Z,70
2017-09-11T10:14:11.727Z,71
2017-09-11T10:15:12.459Z,71
2017-09-11T10:16:13.217Z,72
2017-09-11T10:17:13.970Z,73
2017-09-11T10:18:14.705Z,72
2017-09-11T10:19:15.443Z,70
2017-09-11T10:20:16.200Z,67
2017-09-11T10:21:16.956Z,67
2017-09-11T10:22:17.713Z,68
2017-09-11T10:23:18.446Z,69
2017-09-11T10:24:19.179Z,69
2017-09-11T10:25:19.911Z,70
2017-09-11T10:26:20.645Z,69
2017-09-11T10:27:21.395Z,69
2017-09-11T10:28:22.126Z,69
2017-09-11T10:29:22.856Z,69
2017-09-11T10:30:23.590Z,71
2017-09-11T10:31:24.316Z,72
2017-09-11T10:32:25.043Z,72
2017-09-11T10:33:25.829Z,72
2017-09-11T10:34:26.533Z,69
2017-09-11T10:35:27.261Z,68
2017-09-11T10:36:27.995Z,67
2017-09-11T10:37:28.730Z,66
2017-09-11T10:38:29.487Z,65
2017-09-11T10:39:30.247Z,64
2017-09-11T10:40:30.988Z,64
2017-09-11T10:41:31.728Z,64
2017-09-11T10:42:32.492Z,63
2017-09-11T10:43:33.224Z,62
2017-09-11T10:44:33.987Z,62
2017-09-11T10:45:34.728Z,61
2017-09-11T10:46:35.464Z,62
2017-09-11T10:47:36.198Z,62
2017-09-11T10:48:36.931Z,64
2017-09-11T10:49:37.664Z,65
2017-09-11T10:50:38.422Z,67
2017-09-11T10:51:39.156Z,67
2017-09-11T10:52:39.911Z,68
2017-09-11T10:53:40.640Z,68
2017-09-11T10:54:41.370Z,68
2017-09-11T10:55:42.103Z,69
2017-09-11T10:56:42.833Z,69
2017-09-11T10:57:43.567Z,68
2017-09-11T10:58:44.297Z,68
2017-09-11T10:59:45.031Z,67
2017-09-11T11:00:45.767Z,66
2017-09-11T11:01:46.500Z,66
2017-09-11T11:02:47.235Z,65
2017-09-11T11:03:47.972Z,64
2017-09-11T11:04:48.712Z,62
2017-09-11T11:05:49.448Z,61
2017-09-11T11:06:50.209Z,60
2017-09-11T11:07:50.972Z,61
2017-09-11T11:08:51.709Z,60
2017-09-11T11:09:52.451Z,60
2017-09-11T11:10:53.202Z,61
2017-09-11T11:11:53.937Z,62
2017-09-11T11:12:54.671Z,63
2017-09-11T11:13:55.404Z,63
2017-09-11T11:14:56.160Z,64
2017-09-11T11:15:56.897Z,64
2017-09-11T11:16:57.634Z,63
2017-09-11T11:17:58.367Z,62
2017-09-11T11:18:59.104Z,61
2017-09-11T11:19:59.841Z,62
2017-09-11T11:21:00.576Z,61
2017-09-11T11:22:01.310Z,62
2017-09-11T11:23:02.047Z,61
2017-09-11T11:24:02.816Z,62
2017-09-11T11:25:03.538Z,63
2017-09-11T11:26:04.273Z,63
2017-09-11T11:27:05.034Z,62
2017-09-11T11:28:05.771Z,63
2017-09-11T11:29:06.503Z,64
2017-09-11T11:30:07.261Z,65
2017-09-11T11:31:08.013Z,65
2017-09-11T11:32:08.771Z,65
2017-09-11T11:33:09.504Z,66
2017-09-11T11:34:10.238Z,65
2017-09-11T11:35:10.972Z,65
2017-09-11T11:36:11.730Z,63
2017-09-11T11:37:12.462Z,64
2017-09-11T11:38:13.224Z,63
2017-09-11T11:39:13.981Z,62
2017-09-11T11:40:14.713Z,61
2017-09-11T11:41:15.451Z,60
2017-09-11T11:42:16.183Z,59
2017-09-11T11:43:16.916Z,60
2017-09-11T11:44:17.672Z,62
2017-09-11T11:45:18.447Z,63
2017-09-11T11:46:19.166Z,64
2017-09-11T11:47:19.896Z,64
2017-09-11T11:48:20.630Z,63
2017-09-11T11:49:21.367Z,62
2017-09-11T11:50:22.104Z,60
2017-09-11T11:51:22.836Z,61
2017-09-11T11:52:23.572Z,62
2017-09-11T11:53:24.304Z,63
2017-09-11T11:54:25.036Z,64
2017-09-11T11:55:25.766Z,65
2017-09-11T11:56:26.498Z,66
2017-09-11T11:57:27.229Z,66
2017-09-11T11:58:27.965Z,67
2017-09-11T11:59:28.696Z,67
2017-09-11T12:00:29.430Z,64
2017-09-11T12:01:30.166Z,63
2017-09-11T12:02:30.924Z,62
2017-09-11T12:03:31.660Z,63
2017-09-11T12:04:32.397Z,61
2017-09-11T12:05:33.129Z,61
2017-09-11T12:06:33.866Z,61
2017-09-11T12:07:34.627Z,62
2017-09-11T12:08:35.359Z,62
2017-09-11T12:09:36.097Z,63
2017-09-11T12:10:36.832Z,63
2017-09-11T12:11:37.568Z,63
2017-09-11T12:12:38.300Z,63
2017-09-11T12:13:39.059Z,63
2017-09-11T12:14:39.817Z,64
2017-09-11T12:15:40.549Z,64
2017-09-11T12:16:41.281Z,64
2017-09-11T12:17:42.019Z,64
2017-09-11T12:18:42.751Z,63
2017-09-11T12:19:43.486Z,62
2017-09-11T12:20:44.222Z,60
2017-09-11T12:21:44.979Z,59
2017-09-11T12:22:45.737Z,59
2017-09-11T12:23:46.473Z,60
2017-09-11T12:24:47.206Z,61
2017-09-11T12:25:47.940Z,61
2017-09-11T12:26:48.674Z,62
2017-09-11T12:27:49.407Z,62
2017-09-11T12:28:50.142Z,62
2017-09-11T12:29:50.879Z,63
2017-09-11T12:30:51.605Z,63
2017-09-11T12:31:52.335Z,63
2017-09-11T12:32:53.069Z,63
2017-09-11T12:33:53.798Z,63
2017-09-11T12:34:54.528Z,64
2017-09-11T12:35:55.258Z,64
2017-09-11T12:36:55.999Z,65
2017-09-11T12:37:56.747Z,65
2017-09-11T12:38:57.496Z,65
2017-09-11T12:39:58.250Z,65
2017-09-11T12:40:58.979Z,64
2017-09-11T12:41:59.715Z,62
2017-09-11T12:43:00.474Z,61
2017-09-11T12:44:01.212Z,60
2017-09-11T12:45:01.947Z,58
2017-09-11T12:46:02.681Z,56
2017-09-11T12:47:03.439Z,55
2017-09-11T12:48:04.180Z,56
2017-09-11T12:49:04.921Z,55
2017-09-11T12:50:05.660Z,55
2017-09-11T12:51:06.402Z,55
2017-09-11T12:52:07.142Z,57
2017-09-11T12:53:07.878Z,56
2017-09-11T12:54:08.610Z,58
2017-09-11T12:55:09.358Z,59
2017-09-11T12:56:10.082Z,60
2017-09-11T12:57:10.816Z,61
2017-09-11T12:58:11.550Z,62
2017-09-11T12:59:12.281Z,62
2017-09-11T13:00:13.032Z,61
2017-09-11T13:01:13.787Z,62
2017-09-11T13:02:14.515Z,61
2017-09-11T13:03:15.265Z,62
2017-09-11T13:04:15.999Z,61
2017-09-11T13:05:16.729Z,61
2017-09-11T13:06:17.461Z,61
2017-09-11T13:07:18.197Z,62
2017-09-11T13:08:18.943Z,63
2017-09-11T13:09:19.672Z,62
2017-09-11T13:10:20.401Z,62
2017-09-11T13:11:21.130Z,63
2017-09-11T13:12:21.859Z,63
2017-09-11T13:13:22.591Z,64
2017-09-11T13:14:23.342Z,64
2017-09-11T13:15:24.073Z,64
2017-09-11T13:16:24.801Z,63
2017-09-11T13:17:25.529Z,63
2017-09-11T13:18:26.281Z,63
2017-09-11T13:19:27.008Z,63
2017-09-11T13:20:27.736Z,63
2017-09-11T13:21:28.488Z,64
2017-09-11T13:22:29.215Z,64
2017-09-11T13:23:29.944Z,64
2017-09-11T13:24:30.669Z,64
2017-09-11T13:25:31.398Z,64
2017-09-11T13:26:32.130Z,65
2017-09-11T13:27:32.861Z,64
2017-09-11T13:28:33.612Z,63
2017-09-11T13:29:34.339Z,63
2017-09-11T13:30:35.090Z,63
2017-09-11T13:31:35.842Z,64
2017-09-11T13:32:36.569Z,64
2017-09-11T13:33:37.299Z,64
2017-09-11T13:34:38.051Z,65
2017-09-11T13:35:38.777Z,65
2017-09-11T13:36:39.508Z,64
2017-09-11T13:37:40.240Z,64
2017-09-11T13:38:40.964Z,66
2017-09-11T13:39:41.693Z,68
2017-09-11T13:40:42.444Z,70
2017-09-11T13:41:43.170Z,74
2017-09-11T13:42:43.900Z,74
2017-09-11T13:43:44.629Z,75
2017-09-11T13:44:45.358Z,78
2017-09-11T13:45:46.092Z,78
2017-09-11T13:46:46.825Z,75
2017-09-11T13:47:47.592Z,77
2017-09-11T13:48:48.293Z,75
2017-09-11T13:49:49.025Z,77
2017-09-11T13:50:49.758Z,76
2017-09-11T13:51:50.488Z,72
2017-09-11T13:52:51.226Z,73
2017-09-11T13:53:51.959Z,73
2017-09-11T13:54:52.691Z,73
2017-09-11T13:55:53.446Z,70
2017-09-11T13:56:54.178Z,72
2017-09-11T13:57:54.908Z,73
2017-09-11T13:58:55.641Z,74
2017-09-11T13:59:56.370Z,76
2017-09-11T14:00:57.121Z,77
2017-09-11T14:01:57.852Z,78
2017-09-11T14:02:58.579Z,78
2017-09-11T14:03:59.327Z,78
2017-09-11T14:05:00.081Z,79
2017-09-11T14:06:00.811Z,80
2017-09-11T14:07:01.535Z,80
2017-09-11T14:08:02.264Z,81
2017-09-11T14:09:02.999Z,80
2017-09-11T14:10:03.721Z,80
2017-09-11T14:11:04.448Z,82
2017-09-11T14:12:05.181Z,81
2017-09-11T14:13:05.934Z,80